Sk Audace — 3EKM6 — position and weather

sailwx.info

Track history (hours):
 
Tides and Currents Weather Stations Pressure Air Temp Water Temp Dewpoint Dewpoint Depression Visibility Wind Speed Wind Dir Waves Ship Positions

Sk Audace

Last reported at 2017-Oct-06 05:40 UTC. Time now 2017-Oct-19 00:22 UTC.
Position N 29°44' W 093°52'.
Warning: this ship's position is 12 days out of date.

Length 293 m; draft 9.3 m.

Type: Tanker. MMSI: 373808000.

Date/timePositionNaut miles runAvg speedWind from/ knotsBaromVisibWave heightAir tempDewpointWater temp
2017-Oct-06 05:40N 29°44' W 093°52'1 3.1
2017-Oct-06 05:19N 29°43' W 093°52'3 6.3
2017-Oct-06 04:52N 29°41' W 093°50'9 0.5
2017-Oct-05 12:44N 29°35' W 093°44'0 0.3
2017-Oct-05 12:30N 29°35' W 093°44'2 3.6
2017-Oct-05 11:58N 29°33' W 093°44'5 9.7
2017-Oct-05 11:30N 29°29' W 093°40'74 2.5
2017-Oct-04 05:30N 28°23' W 093°01'74515.1
2017-Oct-02 04:01N 25°25' W 079°30'018.7
2017-Oct-02 04:00N 25°25' W 079°30'918.5
2017-Oct-02 03:30N 25°34' W 079°30'918.5
2017-Oct-02 03:00N 25°43' W 079°29'918.8
2017-Oct-02 02:30N 25°53' W 079°29'918.9
2017-Oct-02 02:00N 26°02' W 079°29'918.9
2017-Oct-02 01:30N 26°11' W 079°26'917.9
2017-Oct-02 01:00N 26°20' W 079°23'  
Track history (hours):
 
Tides and Currents Weather Stations Pressure Air Temp Water Temp Dewpoint Dewpoint Depression Visibility Wind Speed Wind Dir Waves Ship Positions

Sk Audace

Last reported at 2017-Oct-06 05:40 UTC. Time now 2017-Oct-19 00:22 UTC.
Position N 29°44' W 093°52'.
Warning: this ship's position is 12 days out of date.

Length 293 m; draft 9.3 m.

Type: Tanker. MMSI: 373808000.

Date/timePositionNaut miles runAvg speedWind from/ knotsBaromVisibWave heightAir tempDewpointWater temp
2017-Oct-06 05:40N 29°44' W 093°52'1 3.1
2017-Oct-06 05:19N 29°43' W 093°52'3 6.3
2017-Oct-06 04:52N 29°41' W 093°50'9 0.5
2017-Oct-05 12:44N 29°35' W 093°44'0 0.3
2017-Oct-05 12:30N 29°35' W 093°44'2 3.6
2017-Oct-05 11:58N 29°33' W 093°44'5 9.7
2017-Oct-05 11:30N 29°29' W 093°40'74 2.5
2017-Oct-04 05:30N 28°23' W 093°01'74515.1
2017-Oct-02 04:01N 25°25' W 079°30'018.7
2017-Oct-02 04:00N 25°25' W 079°30'918.5
2017-Oct-02 03:30N 25°34' W 079°30'918.5
2017-Oct-02 03:00N 25°43' W 079°29'918.8
2017-Oct-02 02:30N 25°53' W 079°29'918.9
2017-Oct-02 02:00N 26°02' W 079°29'918.9
2017-Oct-02 01:30N 26°11' W 079°26'917.9
2017-Oct-02 01:00N 26°20' W 079°23'  

Dump ship's entire track history